sensor_id;sensor_type;location;lat;lon;timestamp;P1;durP1;ratioP1;P2;durP2;ratioP2
45274;SDS011;31019;43.780;25.948;2024-02-26T00:02:07;44.60;;;41.30;;
45274;SDS011;31019;43.780;25.948;2024-02-26T00:04:34;46.20;;;42.72;;
45274;SDS011;31019;43.780;25.948;2024-02-26T00:07:12;46.70;;;43.50;;
45274;SDS011;31019;43.780;25.948;2024-02-26T00:09:39;45.90;;;42.33;;
45274;SDS011;31019;43.780;25.948;2024-02-26T00:12:06;45.60;;;42.30;;
45274;SDS011;31019;43.780;25.948;2024-02-26T00:14:34;41.85;;;38.88;;
45274;SDS011;31019;43.780;25.948;2024-02-26T00:17:01;42.88;;;39.58;;
45274;SDS011;31019;43.780;25.948;2024-02-26T00:19:29;45.42;;;41.78;;
45274;SDS011;31019;43.780;25.948;2024-02-26T00:22:04;41.30;;;38.15;;
45274;SDS011;31019;43.780;25.948;2024-02-26T00:24:31;41.85;;;38.45;;
45274;SDS011;31019;43.780;25.948;2024-02-26T00:27:00;45.95;;;41.92;;
45274;SDS011;31019;43.780;25.948;2024-02-26T00:29:27;43.90;;;40.80;;
45274;SDS011;31019;43.780;25.948;2024-02-26T00:31:55;41.47;;;38.58;;
45274;SDS011;31019;43.780;25.948;2024-02-26T00:34:23;41.92;;;38.83;;
45274;SDS011;31019;43.780;25.948;2024-02-26T00:36:50;42.58;;;39.40;;
45274;SDS011;31019;43.780;25.948;2024-02-26T00:39:17;43.65;;;40.47;;
45274;SDS011;31019;43.780;25.948;2024-02-26T00:41:45;40.10;;;37.10;;
45274;SDS011;31019;43.780;25.948;2024-02-26T00:44:12;42.20;;;39.20;;
45274;SDS011;31019;43.780;25.948;2024-02-26T00:46:39;42.53;;;39.10;;
45274;SDS011;31019;43.780;25.948;2024-02-26T00:49:08;43.92;;;40.42;;
45274;SDS011;31019;43.780;25.948;2024-02-26T00:51:36;43.78;;;40.58;;
45274;SDS011;31019;43.780;25.948;2024-02-26T00:56:39;41.85;;;38.85;;
45274;SDS011;31019;43.780;25.948;2024-02-26T00:59:06;43.72;;;40.47;;
45274;SDS011;31019;43.780;25.948;2024-02-26T01:01:33;46.33;;;42.45;;
45274;SDS011;31019;43.780;25.948;2024-02-26T01:04:00;45.40;;;41.55;;
45274;SDS011;31019;43.780;25.948;2024-02-26T01:06:28;43.03;;;39.83;;
45274;SDS011;31019;43.780;25.948;2024-02-26T01:08:55;42.03;;;38.83;;
45274;SDS011;31019;43.780;25.948;2024-02-26T01:11:22;43.28;;;40.28;;
45274;SDS011;31019;43.780;25.948;2024-02-26T01:13:52;41.80;;;38.90;;
45274;SDS011;31019;43.780;25.948;2024-02-26T01:18:49;40.22;;;37.33;;
45274;SDS011;31019;43.780;25.948;2024-02-26T01:21:16;40.67;;;37.78;;
45274;SDS011;31019;43.780;25.948;2024-02-26T01:23:44;42.40;;;39.40;;
45274;SDS011;31019;43.780;25.948;2024-02-26T01:26:11;43.22;;;40.00;;
45274;SDS011;31019;43.780;25.948;2024-02-26T01:28:38;47.25;;;42.88;;
45274;SDS011;31019;43.780;25.948;2024-02-26T01:31:05;41.42;;;38.35;;
45274;SDS011;31019;43.780;25.948;2024-02-26T01:33:33;43.83;;;40.33;;
45274;SDS011;31019;43.780;25.948;2024-02-26T01:36:01;36.20;;;33.45;;
45274;SDS011;31019;43.780;25.948;2024-02-26T01:38:28;40.92;;;37.92;;
45274;SDS011;31019;43.780;25.948;2024-02-26T01:40:58;39.08;;;36.15;;
45274;SDS011;31019;43.780;25.948;2024-02-26T01:43:27;40.40;;;37.40;;
45274;SDS011;31019;43.780;25.948;2024-02-26T01:45:54;41.25;;;38.15;;
45274;SDS011;31019;43.780;25.948;2024-02-26T01:48:21;37.47;;;34.85;;
45274;SDS011;31019;43.780;25.948;2024-02-26T01:50:48;37.80;;;34.95;;
45274;SDS011;31019;43.780;25.948;2024-02-26T01:53:21;36.38;;;33.55;;
45274;SDS011;31019;43.780;25.948;2024-02-26T01:55:49;37.80;;;34.60;;
45274;SDS011;31019;43.780;25.948;2024-02-26T01:58:18;37.13;;;34.28;;
45274;SDS011;31019;43.780;25.948;2024-02-26T02:00:45;38.33;;;35.20;;
45274;SDS011;31019;43.780;25.948;2024-02-26T02:03:15;36.80;;;34.10;;
45274;SDS011;31019;43.780;25.948;2024-02-26T02:05:43;41.63;;;38.50;;
45274;SDS011;31019;43.780;25.948;2024-02-26T02:08:11;38.20;;;34.45;;
45274;SDS011;31019;43.780;25.948;2024-02-26T02:10:38;37.45;;;34.65;;
45274;SDS011;31019;43.780;25.948;2024-02-26T02:13:05;37.85;;;34.95;;
45274;SDS011;31019;43.780;25.948;2024-02-26T02:15:34;42.00;;;38.85;;
45274;SDS011;31019;43.780;25.948;2024-02-26T02:18:04;38.45;;;35.35;;
45274;SDS011;31019;43.780;25.948;2024-02-26T02:20:33;41.83;;;38.53;;
45274;SDS011;31019;43.780;25.948;2024-02-26T02:23:00;42.20;;;38.53;;
45274;SDS011;31019;43.780;25.948;2024-02-26T02:25:30;37.13;;;33.97;;
45274;SDS011;31019;43.780;25.948;2024-02-26T02:27:57;39.22;;;36.08;;
45274;SDS011;31019;43.780;25.948;2024-02-26T02:30:25;48.35;;;44.53;;
45274;SDS011;31019;43.780;25.948;2024-02-26T02:32:54;48.03;;;44.53;;
45274;SDS011;31019;43.780;25.948;2024-02-26T02:35:22;44.55;;;41.15;;
45274;SDS011;31019;43.780;25.948;2024-02-26T02:37:51;45.80;;;42.40;;
45274;SDS011;31019;43.780;25.948;2024-02-26T02:40:18;43.38;;;40.28;;
45274;SDS011;31019;43.780;25.948;2024-02-26T02:42:46;40.65;;;37.75;;
45274;SDS011;31019;43.780;25.948;2024-02-26T02:45:26;45.78;;;42.42;;
45274;SDS011;31019;43.780;25.948;2024-02-26T02:50:23;40.22;;;37.42;;
45274;SDS011;31019;43.780;25.948;2024-02-26T02:52:51;47.85;;;44.65;;
45274;SDS011;31019;43.780;25.948;2024-02-26T02:55:18;51.83;;;48.33;;
45274;SDS011;31019;43.780;25.948;2024-02-26T02:57:46;46.00;;;42.40;;
45274;SDS011;31019;43.780;25.948;2024-02-26T03:00:14;39.55;;;36.63;;
45274;SDS011;31019;43.780;25.948;2024-02-26T03:02:41;40.58;;;37.67;;
45274;SDS011;31019;43.780;25.948;2024-02-26T03:05:10;40.67;;;37.88;;
45274;SDS011;31019;43.780;25.948;2024-02-26T03:07:37;41.03;;;38.10;;
45274;SDS011;31019;43.780;25.948;2024-02-26T03:10:05;46.58;;;43.10;;
45274;SDS011;31019;43.780;25.948;2024-02-26T03:12:33;48.00;;;44.55;;
45274;SDS011;31019;43.780;25.948;2024-02-26T03:15:00;44.22;;;41.13;;
45274;SDS011;31019;43.780;25.948;2024-02-26T03:17:28;46.28;;;43.08;;
45274;SDS011;31019;43.780;25.948;2024-02-26T03:22:42;47.22;;;43.67;;
45274;SDS011;31019;43.780;25.948;2024-02-26T03:25:11;47.70;;;44.35;;
45274;SDS011;31019;43.780;25.948;2024-02-26T03:27:38;51.63;;;48.10;;
45274;SDS011;31019;43.780;25.948;2024-02-26T03:30:05;51.00;;;47.10;;
45274;SDS011;31019;43.780;25.948;2024-02-26T03:32:33;47.33;;;43.75;;
45274;SDS011;31019;43.780;25.948;2024-02-26T03:35:06;49.83;;;46.28;;
45274;SDS011;31019;43.780;25.948;2024-02-26T03:37:33;54.78;;;50.67;;
45274;SDS011;31019;43.780;25.948;2024-02-26T03:40:02;49.28;;;45.58;;
45274;SDS011;31019;43.780;25.948;2024-02-26T03:42:34;41.22;;;37.92;;
45274;SDS011;31019;43.780;25.948;2024-02-26T03:45:01;43.03;;;40.05;;
45274;SDS011;31019;43.780;25.948;2024-02-26T03:47:28;43.65;;;40.42;;
45274;SDS011;31019;43.780;25.948;2024-02-26T03:49:55;41.53;;;38.10;;
45274;SDS011;31019;43.780;25.948;2024-02-26T03:52:22;37.00;;;34.30;;
45274;SDS011;31019;43.780;25.948;2024-02-26T03:54:48;44.58;;;41.20;;
45274;SDS011;31019;43.780;25.948;2024-02-26T03:57:15;40.20;;;37.20;;
45274;SDS011;31019;43.780;25.948;2024-02-26T03:59:44;38.40;;;35.38;;
45274;SDS011;31019;43.780;25.948;2024-02-26T04:04:48;43.17;;;38.58;;
45274;SDS011;31019;43.780;25.948;2024-02-26T04:07:15;44.92;;;40.60;;
45274;SDS011;31019;43.780;25.948;2024-02-26T04:12:10;41.60;;;38.30;;
45274;SDS011;31019;43.780;25.948;2024-02-26T04:14:37;38.58;;;35.78;;
45274;SDS011;31019;43.780;25.948;2024-02-26T04:17:08;40.53;;;37.55;;
45274;SDS011;31019;43.780;25.948;2024-02-26T04:19:36;42.40;;;39.50;;
45274;SDS011;31019;43.780;25.948;2024-02-26T04:22:03;46.15;;;42.90;;
45274;SDS011;31019;43.780;25.948;2024-02-26T04:24:30;41.60;;;38.67;;
45274;SDS011;31019;43.780;25.948;2024-02-26T04:26:57;42.55;;;39.35;;
45274;SDS011;31019;43.780;25.948;2024-02-26T04:29:23;45.03;;;41.72;;
45274;SDS011;31019;43.780;25.948;2024-02-26T04:31:50;46.72;;;43.13;;
45274;SDS011;31019;43.780;25.948;2024-02-26T04:34:18;45.28;;;41.97;;
45274;SDS011;31019;43.780;25.948;2024-02-26T04:36:45;45.38;;;41.88;;
45274;SDS011;31019;43.780;25.948;2024-02-26T04:39:16;43.75;;;40.55;;
45274;SDS011;31019;43.780;25.948;2024-02-26T04:41:49;43.40;;;40.20;;
45274;SDS011;31019;43.780;25.948;2024-02-26T04:44:20;41.65;;;38.65;;
45274;SDS011;31019;43.780;25.948;2024-02-26T04:46:47;40.45;;;37.33;;
45274;SDS011;31019;43.780;25.948;2024-02-26T04:49:14;43.45;;;39.85;;
45274;SDS011;31019;43.780;25.948;2024-02-26T04:51:42;44.47;;;40.15;;
45274;SDS011;31019;43.780;25.948;2024-02-26T04:54:09;45.22;;;41.92;;
45274;SDS011;31019;43.780;25.948;2024-02-26T04:56:36;42.63;;;39.63;;
45274;SDS011;31019;43.780;25.948;2024-02-26T04:59:03;42.83;;;39.75;;
45274;SDS011;31019;43.780;25.948;2024-02-26T05:01:30;48.80;;;45.25;;
45274;SDS011;31019;43.780;25.948;2024-02-26T05:03:57;49.40;;;45.85;;
45274;SDS011;31019;43.780;25.948;2024-02-26T05:06:24;42.38;;;38.72;;
45274;SDS011;31019;43.780;25.948;2024-02-26T05:08:58;41.90;;;39.10;;
45274;SDS011;31019;43.780;25.948;2024-02-26T05:11:25;41.92;;;39.08;;
45274;SDS011;31019;43.780;25.948;2024-02-26T05:13:52;39.75;;;37.15;;
45274;SDS011;31019;43.780;25.948;2024-02-26T05:16:19;39.78;;;36.92;;
45274;SDS011;31019;43.780;25.948;2024-02-26T05:18:49;38.92;;;36.42;;
45274;SDS011;31019;43.780;25.948;2024-02-26T05:21:16;42.22;;;39.53;;
45274;SDS011;31019;43.780;25.948;2024-02-26T05:23:51;41.38;;;38.38;;
45274;SDS011;31019;43.780;25.948;2024-02-26T05:26:23;37.55;;;34.85;;
45274;SDS011;31019;43.780;25.948;2024-02-26T05:28:50;38.47;;;35.40;;
45274;SDS011;31019;43.780;25.948;2024-02-26T05:31:17;37.63;;;35.03;;
45274;SDS011;31019;43.780;25.948;2024-02-26T05:33:44;43.72;;;40.53;;
45274;SDS011;31019;43.780;25.948;2024-02-26T05:36:17;48.83;;;45.53;;
45274;SDS011;31019;43.780;25.948;2024-02-26T05:38:46;33.60;;;31.40;;
45274;SDS011;31019;43.780;25.948;2024-02-26T05:41:14;35.08;;;32.53;;
45274;SDS011;31019;43.780;25.948;2024-02-26T05:43:42;34.10;;;31.70;;
45274;SDS011;31019;43.780;25.948;2024-02-26T05:46:09;37.50;;;34.70;;
45274;SDS011;31019;43.780;25.948;2024-02-26T05:48:36;39.50;;;35.88;;
45274;SDS011;31019;43.780;25.948;2024-02-26T05:51:04;37.22;;;34.53;;
45274;SDS011;31019;43.780;25.948;2024-02-26T05:53:34;38.45;;;35.80;;
45274;SDS011;31019;43.780;25.948;2024-02-26T05:56:01;37.55;;;34.55;;
45274;SDS011;31019;43.780;25.948;2024-02-26T05:58:28;36.80;;;34.00;;
45274;SDS011;31019;43.780;25.948;2024-02-26T06:01:05;38.10;;;35.22;;
45274;SDS011;31019;43.780;25.948;2024-02-26T06:03:32;37.70;;;34.90;;
45274;SDS011;31019;43.780;25.948;2024-02-26T06:05:59;39.97;;;37.08;;
45274;SDS011;31019;43.780;25.948;2024-02-26T06:08:27;44.33;;;40.92;;
45274;SDS011;31019;43.780;25.948;2024-02-26T06:11:04;39.85;;;37.05;;
45274;SDS011;31019;43.780;25.948;2024-02-26T06:13:40;42.55;;;39.03;;
45274;SDS011;31019;43.780;25.948;2024-02-26T06:16:09;38.03;;;34.95;;
45274;SDS011;31019;43.780;25.948;2024-02-26T06:18:45;37.92;;;35.03;;
45274;SDS011;31019;43.780;25.948;2024-02-26T06:21:12;38.00;;;35.30;;
45274;SDS011;31019;43.780;25.948;2024-02-26T06:23:44;42.25;;;39.15;;
45274;SDS011;31019;43.780;25.948;2024-02-26T06:26:11;43.60;;;40.40;;
45274;SDS011;31019;43.780;25.948;2024-02-26T06:28:38;43.75;;;40.50;;
45274;SDS011;31019;43.780;25.948;2024-02-26T06:31:06;44.13;;;40.70;;
45274;SDS011;31019;43.780;25.948;2024-02-26T06:33:35;46.10;;;42.83;;
45274;SDS011;31019;43.780;25.948;2024-02-26T06:36:04;52.28;;;48.53;;
45274;SDS011;31019;43.780;25.948;2024-02-26T06:38:32;54.95;;;50.55;;
45274;SDS011;31019;43.780;25.948;2024-02-26T06:41:00;52.03;;;48.13;;
45274;SDS011;31019;43.780;25.948;2024-02-26T06:43:28;47.28;;;43.78;;
45274;SDS011;31019;43.780;25.948;2024-02-26T06:45:55;53.83;;;49.85;;
45274;SDS011;31019;43.780;25.948;2024-02-26T06:48:22;49.88;;;46.08;;
45274;SDS011;31019;43.780;25.948;2024-02-26T06:50:51;47.83;;;44.28;;
45274;SDS011;31019;43.780;25.948;2024-02-26T06:53:18;47.90;;;44.10;;
45274;SDS011;31019;43.780;25.948;2024-02-26T06:55:45;48.88;;;45.38;;
45274;SDS011;31019;43.780;25.948;2024-02-26T06:58:12;50.17;;;46.58;;
45274;SDS011;31019;43.780;25.948;2024-02-26T07:00:39;58.55;;;54.28;;
45274;SDS011;31019;43.780;25.948;2024-02-26T07:03:06;57.45;;;52.63;;
45274;SDS011;31019;43.780;25.948;2024-02-26T07:05:33;57.40;;;52.30;;
45274;SDS011;31019;43.780;25.948;2024-02-26T07:08:14;54.13;;;50.03;;
45274;SDS011;31019;43.780;25.948;2024-02-26T07:10:48;57.85;;;53.70;;
45274;SDS011;31019;43.780;25.948;2024-02-26T07:15:46;61.47;;;57.08;;
45274;SDS011;31019;43.780;25.948;2024-02-26T07:18:13;62.90;;;58.60;;
45274;SDS011;31019;43.780;25.948;2024-02-26T07:20:40;63.28;;;58.92;;
45274;SDS011;31019;43.780;25.948;2024-02-26T07:23:06;64.22;;;59.53;;
45274;SDS011;31019;43.780;25.948;2024-02-26T07:25:35;62.17;;;57.80;;
45274;SDS011;31019;43.780;25.948;2024-02-26T07:28:05;61.75;;;57.55;;
45274;SDS011;31019;43.780;25.948;2024-02-26T07:30:32;69.05;;;64.60;;
45274;SDS011;31019;43.780;25.948;2024-02-26T07:33:00;70.32;;;65.53;;
45274;SDS011;31019;43.780;25.948;2024-02-26T07:35:27;61.05;;;57.03;;
45274;SDS011;31019;43.780;25.948;2024-02-26T07:37:54;72.20;;;65.40;;
45274;SDS011;31019;43.780;25.948;2024-02-26T07:40:21;72.55;;;67.65;;
45274;SDS011;31019;43.780;25.948;2024-02-26T07:42:49;62.65;;;57.70;;
45274;SDS011;31019;43.780;25.948;2024-02-26T07:45:18;65.95;;;60.80;;
45274;SDS011;31019;43.780;25.948;2024-02-26T07:47:46;60.88;;;56.67;;
45274;SDS011;31019;43.780;25.948;2024-02-26T07:50:13;50.70;;;46.67;;
45274;SDS011;31019;43.780;25.948;2024-02-26T07:52:40;51.67;;;47.50;;
45274;SDS011;31019;43.780;25.948;2024-02-26T07:55:07;53.05;;;49.55;;
45274;SDS011;31019;43.780;25.948;2024-02-26T07:57:37;49.15;;;45.95;;
45274;SDS011;31019;43.780;25.948;2024-02-26T08:00:10;42.95;;;40.20;;
45274;SDS011;31019;43.780;25.948;2024-02-26T08:02:41;42.08;;;39.47;;
45274;SDS011;31019;43.780;25.948;2024-02-26T08:05:09;39.10;;;36.50;;
45274;SDS011;31019;43.780;25.948;2024-02-26T08:07:36;41.45;;;38.97;;
45274;SDS011;31019;43.780;25.948;2024-02-26T08:10:03;37.85;;;35.35;;
45274;SDS011;31019;43.780;25.948;2024-02-26T08:15:31;39.42;;;36.80;;
45274;SDS011;31019;43.780;25.948;2024-02-26T08:17:59;38.53;;;36.03;;
45274;SDS011;31019;43.780;25.948;2024-02-26T08:20:33;35.55;;;33.30;;
45274;SDS011;31019;43.780;25.948;2024-02-26T08:23:02;35.72;;;33.42;;
45274;SDS011;31019;43.780;25.948;2024-02-26T08:25:29;35.50;;;33.22;;
45274;SDS011;31019;43.780;25.948;2024-02-26T08:27:56;37.55;;;34.85;;
45274;SDS011;31019;43.780;25.948;2024-02-26T08:30:23;31.58;;;29.77;;
45274;SDS011;31019;43.780;25.948;2024-02-26T08:32:52;45.50;;;42.97;;
45274;SDS011;31019;43.780;25.948;2024-02-26T08:35:19;44.78;;;42.28;;
45274;SDS011;31019;43.780;25.948;2024-02-26T08:37:46;49.40;;;46.70;;
45274;SDS011;31019;43.780;25.948;2024-02-26T08:40:14;34.40;;;32.30;;
45274;SDS011;31019;43.780;25.948;2024-02-26T08:42:41;34.55;;;32.45;;
45274;SDS011;31019;43.780;25.948;2024-02-26T08:45:08;32.60;;;30.70;;
45274;SDS011;31019;43.780;25.948;2024-02-26T08:47:36;32.45;;;30.35;;
45274;SDS011;31019;43.780;25.948;2024-02-26T08:50:06;32.20;;;30.40;;
45274;SDS011;31019;43.780;25.948;2024-02-26T08:52:40;31.30;;;29.60;;
45274;SDS011;31019;43.780;25.948;2024-02-26T08:55:07;31.25;;;29.48;;
45274;SDS011;31019;43.780;25.948;2024-02-26T08:57:40;33.65;;;31.65;;
45274;SDS011;31019;43.780;25.948;2024-02-26T09:00:07;49.05;;;46.45;;
45274;SDS011;31019;43.780;25.948;2024-02-26T09:02:39;43.03;;;40.83;;
45274;SDS011;31019;43.780;25.948;2024-02-26T09:05:09;46.53;;;44.05;;
45274;SDS011;31019;43.780;25.948;2024-02-26T09:07:37;32.33;;;30.42;;
45274;SDS011;31019;43.780;25.948;2024-02-26T09:10:04;57.55;;;54.47;;
45274;SDS011;31019;43.780;25.948;2024-02-26T09:12:34;43.70;;;41.20;;
45274;SDS011;31019;43.780;25.948;2024-02-26T09:15:01;30.48;;;28.58;;
45274;SDS011;31019;43.780;25.948;2024-02-26T09:17:27;39.58;;;37.35;;
45274;SDS011;31019;43.780;25.948;2024-02-26T09:19:54;32.25;;;30.35;;
45274;SDS011;31019;43.780;25.948;2024-02-26T09:22:23;32.35;;;30.35;;
45274;SDS011;31019;43.780;25.948;2024-02-26T09:24:50;34.35;;;32.25;;
45274;SDS011;31019;43.780;25.948;2024-02-26T09:27:18;33.72;;;31.73;;
45274;SDS011;31019;43.780;25.948;2024-02-26T09:29:45;32.33;;;30.33;;
45274;SDS011;31019;43.780;25.948;2024-02-26T09:32:13;30.30;;;28.52;;
45274;SDS011;31019;43.780;25.948;2024-02-26T09:34:40;46.83;;;44.33;;
45274;SDS011;31019;43.780;25.948;2024-02-26T09:37:07;47.38;;;44.78;;
45274;SDS011;31019;43.780;25.948;2024-02-26T09:39:42;31.40;;;29.58;;
45274;SDS011;31019;43.780;25.948;2024-02-26T09:42:09;32.85;;;30.85;;
45274;SDS011;31019;43.780;25.948;2024-02-26T09:44:40;33.60;;;31.40;;
45274;SDS011;31019;43.780;25.948;2024-02-26T09:47:07;37.08;;;34.75;;
45274;SDS011;31019;43.780;25.948;2024-02-26T09:49:36;42.03;;;39.33;;
45274;SDS011;31019;43.780;25.948;2024-02-26T09:52:04;38.60;;;36.00;;
45274;SDS011;31019;43.780;25.948;2024-02-26T09:54:34;40.03;;;37.33;;
45274;SDS011;31019;43.780;25.948;2024-02-26T09:57:03;40.35;;;37.65;;
45274;SDS011;31019;43.780;25.948;2024-02-26T09:59:39;55.10;;;51.72;;
45274;SDS011;31019;43.780;25.948;2024-02-26T10:02:09;42.90;;;39.90;;
45274;SDS011;31019;43.780;25.948;2024-02-26T10:04:40;64.10;;;60.30;;
45274;SDS011;31019;43.780;25.948;2024-02-26T10:07:09;73.40;;;69.20;;
45274;SDS011;31019;43.780;25.948;2024-02-26T10:09:37;52.03;;;48.63;;
45274;SDS011;31019;43.780;25.948;2024-02-26T10:12:06;41.83;;;38.83;;
45274;SDS011;31019;43.780;25.948;2024-02-26T10:14:36;61.40;;;57.47;;
45274;SDS011;31019;43.780;25.948;2024-02-26T10:17:03;44.17;;;41.08;;
45274;SDS011;31019;43.780;25.948;2024-02-26T10:19:36;43.17;;;40.20;;
45274;SDS011;31019;43.780;25.948;2024-02-26T10:22:03;63.22;;;59.33;;
45274;SDS011;31019;43.780;25.948;2024-02-26T10:24:30;64.20;;;60.28;;
45274;SDS011;31019;43.780;25.948;2024-02-26T10:26:57;52.60;;;49.10;;
45274;SDS011;31019;43.780;25.948;2024-02-26T10:29:25;58.00;;;54.40;;
45274;SDS011;31019;43.780;25.948;2024-02-26T10:31:56;56.17;;;52.58;;
45274;SDS011;31019;43.780;25.948;2024-02-26T10:34:24;71.60;;;67.40;;
45274;SDS011;31019;43.780;25.948;2024-02-26T10:36:53;66.88;;;62.88;;
45274;SDS011;31019;43.780;25.948;2024-02-26T10:39:20;42.88;;;40.05;;
45274;SDS011;31019;43.780;25.948;2024-02-26T10:41:47;46.85;;;43.95;;
45274;SDS011;31019;43.780;25.948;2024-02-26T10:44:14;48.55;;;45.55;;
45274;SDS011;31019;43.780;25.948;2024-02-26T10:46:42;47.88;;;44.97;;
45274;SDS011;31019;43.780;25.948;2024-02-26T10:49:13;47.78;;;44.92;;
45274;SDS011;31019;43.780;25.948;2024-02-26T10:51:50;52.20;;;49.00;;
45274;SDS011;31019;43.780;25.948;2024-02-26T10:54:21;69.50;;;65.60;;
45274;SDS011;31019;43.780;25.948;2024-02-26T10:56:52;48.53;;;45.53;;
45274;SDS011;31019;43.780;25.948;2024-02-26T10:59:22;47.03;;;43.92;;
45274;SDS011;31019;43.780;25.948;2024-02-26T11:01:50;43.33;;;40.33;;
45274;SDS011;31019;43.780;25.948;2024-02-26T11:04:19;41.80;;;38.90;;
45274;SDS011;31019;43.780;25.948;2024-02-26T11:06:48;44.45;;;41.70;;
45274;SDS011;31019;43.780;25.948;2024-02-26T11:09:16;45.05;;;42.25;;
45274;SDS011;31019;43.780;25.948;2024-02-26T11:11:45;39.03;;;36.33;;
45274;SDS011;31019;43.780;25.948;2024-02-26T11:14:13;40.72;;;38.03;;
45274;SDS011;31019;43.780;25.948;2024-02-26T11:16:40;40.95;;;38.25;;
45274;SDS011;31019;43.780;25.948;2024-02-26T11:19:09;39.20;;;36.70;;
45274;SDS011;31019;43.780;25.948;2024-02-26T11:21:39;39.13;;;36.50;;
45274;SDS011;31019;43.780;25.948;2024-02-26T11:24:07;41.33;;;38.50;;
45274;SDS011;31019;43.780;25.948;2024-02-26T11:26:39;39.05;;;36.55;;
45274;SDS011;31019;43.780;25.948;2024-02-26T11:29:13;37.70;;;35.30;;
45274;SDS011;31019;43.780;25.948;2024-02-26T11:31:43;37.45;;;34.97;;
45274;SDS011;31019;43.780;25.948;2024-02-26T11:34:12;45.20;;;42.40;;
45274;SDS011;31019;43.780;25.948;2024-02-26T11:36:39;38.63;;;36.13;;
45274;SDS011;31019;43.780;25.948;2024-02-26T11:39:07;38.40;;;35.80;;
45274;SDS011;31019;43.780;25.948;2024-02-26T11:41:36;37.40;;;35.00;;
45274;SDS011;31019;43.780;25.948;2024-02-26T11:44:03;39.72;;;37.22;;
45274;SDS011;31019;43.780;25.948;2024-02-26T11:46:32;37.05;;;34.45;;
45274;SDS011;31019;43.780;25.948;2024-02-26T11:49:29;39.28;;;36.58;;
45274;SDS011;31019;43.780;25.948;2024-02-26T11:51:57;49.50;;;46.38;;
45274;SDS011;31019;43.780;25.948;2024-02-26T11:54:38;44.95;;;41.95;;
45274;SDS011;31019;43.780;25.948;2024-02-26T11:57:21;56.17;;;52.92;;
45274;SDS011;31019;43.780;25.948;2024-02-26T11:59:52;55.28;;;52.05;;
45274;SDS011;31019;43.780;25.948;2024-02-26T12:05:14;57.35;;;53.92;;
45274;SDS011;31019;43.780;25.948;2024-02-26T12:07:43;69.10;;;65.25;;
45274;SDS011;31019;43.780;25.948;2024-02-26T12:10:14;66.93;;;63.13;;
45274;SDS011;31019;43.780;25.948;2024-02-26T12:12:43;67.35;;;63.65;;
45274;SDS011;31019;43.780;25.948;2024-02-26T12:15:11;68.07;;;64.38;;
45274;SDS011;31019;43.780;25.948;2024-02-26T12:17:42;68.90;;;65.22;;
45274;SDS011;31019;43.780;25.948;2024-02-26T12:20:17;69.38;;;65.00;;
45274;SDS011;31019;43.780;25.948;2024-02-26T12:22:46;71.97;;;68.07;;
45274;SDS011;31019;43.780;25.948;2024-02-26T12:25:14;60.33;;;56.78;;
45274;SDS011;31019;43.780;25.948;2024-02-26T12:27:41;51.33;;;48.22;;
45274;SDS011;31019;43.780;25.948;2024-02-26T12:30:08;49.92;;;46.83;;
45274;SDS011;31019;43.780;25.948;2024-02-26T12:32:36;46.45;;;43.55;;
45274;SDS011;31019;43.780;25.948;2024-02-26T12:35:03;45.13;;;42.38;;
45274;SDS011;31019;43.780;25.948;2024-02-26T12:37:34;67.07;;;63.17;;
45274;SDS011;31019;43.780;25.948;2024-02-26T12:40:03;68.32;;;64.43;;
45274;SDS011;31019;43.780;25.948;2024-02-26T12:42:32;70.60;;;66.60;;
45274;SDS011;31019;43.780;25.948;2024-02-26T12:45:04;69.75;;;65.85;;
45274;SDS011;31019;43.780;25.948;2024-02-26T12:47:35;64.15;;;60.45;;
45274;SDS011;31019;43.780;25.948;2024-02-26T12:50:03;66.07;;;62.17;;
45274;SDS011;31019;43.780;25.948;2024-02-26T12:52:31;54.55;;;51.08;;
45274;SDS011;31019;43.780;25.948;2024-02-26T12:55:00;50.78;;;47.58;;
45274;SDS011;31019;43.780;25.948;2024-02-26T12:57:29;53.15;;;49.20;;
45274;SDS011;31019;43.780;25.948;2024-02-26T12:59:58;48.13;;;44.88;;
45274;SDS011;31019;43.780;25.948;2024-02-26T13:02:25;47.20;;;44.03;;
45274;SDS011;31019;43.780;25.948;2024-02-26T13:04:53;61.88;;;58.10;;
45274;SDS011;31019;43.780;25.948;2024-02-26T13:07:21;67.32;;;63.42;;
45274;SDS011;31019;43.780;25.948;2024-02-26T13:09:48;60.08;;;56.33;;
45274;SDS011;31019;43.780;25.948;2024-02-26T13:12:17;31.05;;;28.45;;
45274;SDS011;31019;43.780;25.948;2024-02-26T13:14:44;47.53;;;44.50;;
45274;SDS011;31019;43.780;25.948;2024-02-26T13:17:11;47.80;;;44.72;;
45274;SDS011;31019;43.780;25.948;2024-02-26T13:19:38;48.65;;;45.45;;
45274;SDS011;31019;43.780;25.948;2024-02-26T13:22:15;36.15;;;33.60;;
45274;SDS011;31019;43.780;25.948;2024-02-26T13:24:42;36.58;;;34.15;;
45274;SDS011;31019;43.780;25.948;2024-02-26T13:27:09;40.75;;;38.20;;
45274;SDS011;31019;43.780;25.948;2024-02-26T13:29:38;39.70;;;36.90;;
45274;SDS011;31019;43.780;25.948;2024-02-26T13:32:05;58.67;;;55.17;;
45274;SDS011;31019;43.780;25.948;2024-02-26T13:34:32;60.83;;;57.28;;
45274;SDS011;31019;43.780;25.948;2024-02-26T13:37:00;57.17;;;53.67;;
45274;SDS011;31019;43.780;25.948;2024-02-26T13:39:28;62.22;;;58.58;;
45274;SDS011;31019;43.780;25.948;2024-02-26T13:41:55;59.65;;;56.05;;
45274;SDS011;31019;43.780;25.948;2024-02-26T13:44:22;61.15;;;57.55;;
45274;SDS011;31019;43.780;25.948;2024-02-26T13:46:51;42.97;;;40.08;;
45274;SDS011;31019;43.780;25.948;2024-02-26T13:49:18;61.63;;;57.97;;
45274;SDS011;31019;43.780;25.948;2024-02-26T13:51:45;60.88;;;57.25;;
45274;SDS011;31019;43.780;25.948;2024-02-26T13:54:11;57.10;;;53.60;;
45274;SDS011;31019;43.780;25.948;2024-02-26T13:56:40;39.55;;;36.75;;
45274;SDS011;31019;43.780;25.948;2024-02-26T13:59:07;40.75;;;37.90;;
45274;SDS011;31019;43.780;25.948;2024-02-26T14:01:34;43.38;;;40.38;;
45274;SDS011;31019;43.780;25.948;2024-02-26T14:04:03;42.17;;;39.38;;
45274;SDS011;31019;43.780;25.948;2024-02-26T14:06:31;35.15;;;32.65;;
45274;SDS011;31019;43.780;25.948;2024-02-26T14:08:58;35.13;;;32.80;;
45274;SDS011;31019;43.780;25.948;2024-02-26T14:11:25;41.55;;;38.75;;
45274;SDS011;31019;43.780;25.948;2024-02-26T14:13:54;40.63;;;37.92;;
45274;SDS011;31019;43.780;25.948;2024-02-26T14:16:21;38.70;;;36.20;;
45274;SDS011;31019;43.780;25.948;2024-02-26T14:18:48;35.78;;;33.47;;
45274;SDS011;31019;43.780;25.948;2024-02-26T14:21:16;37.03;;;34.63;;
45274;SDS011;31019;43.780;25.948;2024-02-26T14:23:43;36.22;;;33.92;;
45274;SDS011;31019;43.780;25.948;2024-02-26T14:26:11;38.42;;;35.92;;
45274;SDS011;31019;43.780;25.948;2024-02-26T14:28:38;36.55;;;34.15;;
45274;SDS011;31019;43.780;25.948;2024-02-26T14:31:05;34.40;;;32.00;;
45274;SDS011;31019;43.780;25.948;2024-02-26T14:33:37;34.60;;;32.10;;
45274;SDS011;31019;43.780;25.948;2024-02-26T14:36:06;33.67;;;31.27;;
45274;SDS011;31019;43.780;25.948;2024-02-26T14:38:34;38.85;;;36.15;;
45274;SDS011;31019;43.780;25.948;2024-02-26T14:41:01;36.92;;;34.22;;